Time;durP1;ratioP1;P1;durP2;ratioP2;P2;SDS_P1;SDS_P2;PMS_P1;PMS_P2;Temp;Humidity;BMP_temperature;BMP_pressure;BME280_temperature;BME280_humidity;BME280_pressure;Samples;Min_cycle;Max_cycle;Signal;HPM_P1;HPM_P2
2022/01/26 00:00:56;;;;;;;58.78;38.53;;;;;;;;;;5003480;28;20473;-59
2022/01/26 00:06:16;;;;;;;51.75;35.03;;;;;;;;;;5001202;28;20077;-59
2022/01/26 00:08:42;;;;;;;51.03;34.58;;;;;;;;;;5004138;28;20050;-59
2022/01/26 00:11:08;;;;;;;48.38;33.70;;;;;;;;;;5000908;28;20417;-59
2022/01/26 00:13:34;;;;;;;49.80;33.40;;;;;;;;;;5005403;28;20395;-59
2022/01/26 00:16:03;;;;;;;54.83;33.78;;;;;;;;;;5004758;28;20041;-59
2022/01/26 00:18:32;;;;;;;57.95;33.80;;;;;;;;;;4991504;28;20120;-58
2022/01/26 00:21:06;;;;;;;58.10;34.25;;;;;;;;;;5001761;28;20187;-58
2022/01/26 00:26:31;;;;;;;57.88;34.92;;;;;;;;;;5000605;28;20034;-59
2022/01/26 00:29:11;;;;;;;53.30;34.30;;;;;;;;;;5001562;28;20078;-59
2022/01/26 00:40:00;;;;;;;55.13;34.00;;;;;;;;;;5024563;28;20039;-56
2022/01/26 00:42:32;;;;;;;52.83;34.25;;;;;;;;;;5017483;28;20498;-59
2022/01/26 00:44:58;;;;;;;48.42;33.75;;;;;;;;;;5023263;28;20045;-56
2022/01/26 00:47:23;;;;;;;51.05;34.05;;;;;;;;;;5020239;28;20398;-56
2022/01/26 00:49:50;;;;;;;55.08;34.15;;;;;;;;;;5020269;28;20118;-59
2022/01/26 00:52:26;;;;;;;49.13;33.53;;;;;;;;;;5018735;28;20074;-58
2022/01/26 00:54:52;;;;;;;55.10;35.58;;;;;;;;;;5018146;28;20120;-58
2022/01/26 00:57:18;;;;;;;53.22;33.80;;;;;;;;;;5021358;28;20195;-59
2022/01/26 00:59:43;;;;;;;47.60;33.63;;;;;;;;;;5019706;28;20033;-55
2022/01/26 01:02:09;;;;;;;51.63;33.42;;;;;;;;;;5017508;28;20470;-56
2022/01/26 01:04:35;;;;;;;53.35;34.65;;;;;;;;;;5019430;28;20040;-59
2022/01/26 01:07:03;;;;;;;55.72;34.67;;;;;;;;;;5020870;28;20079;-58
2022/01/26 01:09:33;;;;;;;57.75;37.47;;;;;;;;;;5019267;28;20044;-59
2022/01/26 01:12:01;;;;;;;54.33;36.53;;;;;;;;;;5023198;28;20043;-57
2022/01/26 01:14:27;;;;;;;50.67;36.35;;;;;;;;;;5024828;28;20037;-58
2022/01/26 01:16:55;;;;;;;57.47;36.00;;;;;;;;;;5023740;28;20030;-55
2022/01/26 01:20:07;;;;;;;56.28;36.95;;;;;;;;;;5017968;28;20036;-58
2022/01/26 01:30:36;;;;;;;55.58;36.13;;;;;;;;;;4994953;28;20041;-55
2022/01/26 01:33:10;;;;;;;56.25;35.10;;;;;;;;;;4999809;28;20060;-58
2022/01/26 01:35:41;;;;;;;54.88;35.22;;;;;;;;;;4996133;28;22141;-56
2022/01/26 01:38:10;;;;;;;64.32;34.88;;;;;;;;;;4996287;28;20034;-56
2022/01/26 01:40:38;;;;;;;53.35;35.90;;;;;;;;;;4996231;28;20475;-58
2022/01/26 01:43:05;;;;;;;58.78;35.38;;;;;;;;;;4984641;28;20487;-59
2022/01/26 01:45:37;;;;;;;55.50;35.10;;;;;;;;;;4994652;28;20557;-58
2022/01/26 01:48:04;;;;;;;60.58;37.35;;;;;;;;;;4992956;28;20645;-55
2022/01/26 01:50:31;;;;;;;51.22;34.65;;;;;;;;;;4998686;28;20096;-57
2022/01/26 01:53:01;;;;;;;63.03;36.92;;;;;;;;;;5000181;28;20037;-58
2022/01/26 01:55:29;;;;;;;51.92;35.63;;;;;;;;;;4996843;28;20169;-56
2022/01/26 01:57:56;;;;;;;50.95;33.92;;;;;;;;;;4991171;28;20407;-56
2022/01/26 02:00:24;;;;;;;52.17;34.65;;;;;;;;;;4995321;28;20214;-58
2022/01/26 02:02:50;;;;;;;56.58;34.10;;;;;;;;;;4997594;28;20446;-58
2022/01/26 02:05:16;;;;;;;52.72;34.15;;;;;;;;;;5021868;28;20033;-58
2022/01/26 02:07:42;;;;;;;50.47;33.28;;;;;;;;;;5022356;28;20044;-54
2022/01/26 02:10:09;;;;;;;53.15;34.50;;;;;;;;;;5023216;28;20083;-59
2022/01/26 02:12:38;;;;;;;48.35;33.28;;;;;;;;;;5025573;28;20425;-57
2022/01/26 02:15:11;;;;;;;57.45;33.80;;;;;;;;;;5023190;28;20045;-56
2022/01/26 02:50:24;;;;;;;47.45;32.95;;;;;;;;;;5022350;28;20457;-58
2022/01/26 02:55:39;;;;;;;52.10;33.25;;;;;;;;;;5022689;28;20458;-58
2022/01/26 02:59:08;;;;;;;49.63;32.58;;;;;;;;;;5027484;28;20034;-56
2022/01/26 03:03:33;;;;;;;48.45;32.78;;;;;;;;;;5028292;28;20457;-57
2022/01/26 03:06:07;;;;;;;52.88;34.30;;;;;;;;;;5023221;28;20466;-58
2022/01/26 03:08:43;;;;;;;49.88;32.33;;;;;;;;;;5018562;28;20030;-58
2022/01/26 03:11:12;;;;;;;56.22;33.45;;;;;;;;;;5024006;28;20044;-58
2022/01/26 03:13:45;;;;;;;50.78;33.25;;;;;;;;;;5019672;28;20470;-58
2022/01/26 03:16:20;;;;;;;46.25;32.05;;;;;;;;;;5020693;28;20477;-57
2022/01/26 03:19:02;;;;;;;45.72;31.52;;;;;;;;;;5022800;28;20033;-59
2022/01/26 03:21:47;;;;;;;47.55;31.35;;;;;;;;;;5026174;28;20482;-59
2022/01/26 03:29:59;;;;;;;46.58;31.38;;;;;;;;;;5022695;28;20120;-58
2022/01/26 03:35:15;;;;;;;51.15;32.45;;;;;;;;;;5023305;28;20033;-59
2022/01/26 03:37:50;;;;;;;48.22;30.15;;;;;;;;;;5023268;28;20120;-59
2022/01/26 03:40:17;;;;;;;47.78;33.13;;;;;;;;;;5027033;28;20048;-55
2022/01/26 03:42:42;;;;;;;45.15;31.02;;;;;;;;;;5027346;28;20355;-58
2022/01/26 03:45:09;;;;;;;51.20;32.00;;;;;;;;;;5021374;28;20029;-57
2022/01/26 03:47:34;;;;;;;50.10;31.58;;;;;;;;;;5019746;28;20092;-55
2022/01/26 03:50:00;;;;;;;43.65;31.48;;;;;;;;;;5021702;28;20025;-54
2022/01/26 03:52:26;;;;;;;47.67;30.75;;;;;;;;;;5020241;28;20466;-56
2022/01/26 03:54:52;;;;;;;50.33;32.25;;;;;;;;;;5016592;28;20033;-57
2022/01/26 03:57:18;;;;;;;51.25;32.85;;;;;;;;;;5021002;28;20037;-59
2022/01/26 03:59:43;;;;;;;49.17;31.88;;;;;;;;;;5021499;28;20034;-55
2022/01/26 04:02:09;;;;;;;49.10;31.20;;;;;;;;;;5024089;28;20033;-57
2022/01/26 04:04:43;;;;;;;48.40;30.90;;;;;;;;;;5024726;28;20096;-58
2022/01/26 04:07:09;;;;;;;47.85;30.63;;;;;;;;;;5017018;28;20028;-59
2022/01/26 04:09:34;;;;;;;49.35;30.80;;;;;;;;;;5020622;28;20029;-58
2022/01/26 04:12:00;;;;;;;46.92;30.90;;;;;;;;;;5020155;28;20397;-59
2022/01/26 04:14:30;;;;;;;43.85;30.33;;;;;;;;;;5018598;28;20105;-57
2022/01/26 04:16:56;;;;;;;45.17;30.85;;;;;;;;;;5022218;28;20046;-58
2022/01/26 04:19:23;;;;;;;46.90;31.35;;;;;;;;;;5018211;28;20056;-58
2022/01/26 04:24:26;;;;;;;45.85;30.10;;;;;;;;;;5020683;28;20092;-61
2022/01/26 04:26:59;;;;;;;46.13;30.92;;;;;;;;;;5016134;28;20041;-60
2022/01/26 04:29:28;;;;;;;44.38;30.48;;;;;;;;;;5023837;28;20120;-60
2022/01/26 04:31:54;;;;;;;50.28;29.75;;;;;;;;;;5021907;28;20052;-60
2022/01/26 04:34:20;;;;;;;45.15;30.60;;;;;;;;;;5025226;28;20465;-60
2022/01/26 04:36:53;;;;;;;42.92;28.70;;;;;;;;;;5022874;28;20080;-61
2022/01/26 04:39:25;;;;;;;;;;;;;;;;;;5018708;28;20023;-58
2022/01/26 04:44:22;;;;;;;45.22;28.15;;;;;;;;;;5024247;28;20084;-61
2022/01/26 04:46:49;;;;;;;40.53;28.45;;;;;;;;;;5025129;28;20032;-59
2022/01/26 04:49:15;;;;;;;42.67;28.98;;;;;;;;;;5018074;28;20120;-60
2022/01/26 04:51:41;;;;;;;50.30;27.42;;;;;;;;;;5016316;28;20460;-60
2022/01/26 04:54:07;;;;;;;43.22;27.98;;;;;;;;;;5023651;28;20148;-59
2022/01/26 04:56:33;;;;;;;42.90;28.80;;;;;;;;;;5019417;28;20025;-60
2022/01/26 04:58:59;;;;;;;42.13;28.15;;;;;;;;;;5018183;28;20072;-60
2022/01/26 05:01:24;;;;;;;44.53;29.42;;;;;;;;;;5021565;28;20029;-60
2022/01/26 05:03:50;;;;;;;41.20;27.70;;;;;;;;;;5022695;28;20485;-60
2022/01/26 05:06:16;;;;;;;42.53;28.17;;;;;;;;;;5027780;28;20037;-60
2022/01/26 05:08:41;;;;;;;40.85;28.25;;;;;;;;;;5020297;28;20127;-60
2022/01/26 05:11:10;;;;;;;39.17;27.02;;;;;;;;;;5020111;28;20069;-60
2022/01/26 05:13:36;;;;;;;46.40;28.17;;;;;;;;;;5017890;28;20069;-60
2022/01/26 05:16:05;;;;;;;41.15;28.48;;;;;;;;;;5017605;28;20068;-59
2022/01/26 05:18:31;;;;;;;40.47;26.90;;;;;;;;;;5022975;28;20125;-60
2022/01/26 05:20:57;;;;;;;41.13;27.60;;;;;;;;;;5018867;28;20141;-60
2022/01/26 05:23:22;;;;;;;44.03;26.67;;;;;;;;;;5018521;28;20034;-60
2022/01/26 05:25:48;;;;;;;39.92;27.42;;;;;;;;;;5017790;28;20026;-60
2022/01/26 05:28:14;;;;;;;36.95;26.17;;;;;;;;;;5021247;28;20110;-60
2022/01/26 05:30:39;;;;;;;38.10;26.38;;;;;;;;;;5017688;28;20028;-60
2022/01/26 05:33:05;;;;;;;38.88;25.75;;;;;;;;;;5020723;28;20049;-60
2022/01/26 05:35:32;;;;;;;37.38;26.15;;;;;;;;;;5023505;28;20030;-60
2022/01/26 05:37:58;;;;;;;43.03;27.83;;;;;;;;;;5016356;28;20088;-60
2022/01/26 05:40:23;;;;;;;55.03;30.60;;;;;;;;;;5017315;28;20033;-60
2022/01/26 05:42:49;;;;;;;75.00;40.10;;;;;;;;;;5026617;28;20037;-60
2022/01/26 05:45:26;;;;;;;95.65;44.85;;;;;;;;;;5028262;28;20029;-60
2022/01/26 05:47:51;;;;;;;86.55;43.70;;;;;;;;;;5026152;28;20030;-60
2022/01/26 05:50:19;;;;;;;74.10;40.30;;;;;;;;;;5027161;28;20171;-59
2022/01/26 05:52:45;;;;;;;74.00;39.85;;;;;;;;;;5024729;28;20038;-60
2022/01/26 05:55:10;;;;;;;65.53;38.00;;;;;;;;;;5017813;28;20095;-60
2022/01/26 05:57:36;;;;;;;57.05;34.75;;;;;;;;;;5019643;28;20030;-60
2022/01/26 06:00:03;;;;;;;59.08;34.00;;;;;;;;;;5025543;28;20022;-60
2022/01/26 06:02:32;;;;;;;52.10;32.40;;;;;;;;;;5024458;28;20029;-61
2022/01/26 06:04:58;;;;;;;52.47;31.20;;;;;;;;;;5025207;28;20033;-60
2022/01/26 06:07:24;;;;;;;48.80;30.35;;;;;;;;;;5020840;28;20389;-60
2022/01/26 06:09:49;;;;;;;48.70;31.30;;;;;;;;;;5019818;28;20034;-60
2022/01/26 06:12:15;;;;;;;49.30;28.95;;;;;;;;;;5023522;28;20033;-60
2022/01/26 06:14:41;;;;;;;45.95;29.58;;;;;;;;;;5021791;28;20037;-61
2022/01/26 06:17:07;;;;;;;49.03;28.15;;;;;;;;;;5020205;28;20030;-60
2022/01/26 06:19:33;;;;;;;38.20;25.65;;;;;;;;;;5024043;28;20484;-60
2022/01/26 06:21:59;;;;;;;32.33;25.08;;;;;;;;;;5020938;28;20037;-60
2022/01/26 06:24:25;;;;;;;32.03;23.77;;;;;;;;;;5029386;28;20033;-60
2022/01/26 06:26:50;;;;;;;39.42;24.63;;;;;;;;;;5026535;28;20072;-61
2022/01/26 06:29:16;;;;;;;38.55;25.63;;;;;;;;;;5024045;28;20390;-60
2022/01/26 06:31:43;;;;;;;50.17;26.48;;;;;;;;;;5019530;28;20164;-61
2022/01/26 06:34:11;;;;;;;43.45;26.77;;;;;;;;;;5028204;28;20032;-59
2022/01/26 06:36:43;;;;;;;43.88;28.33;;;;;;;;;;5020693;28;20026;-60
2022/01/26 06:39:17;;;;;;;42.78;28.73;;;;;;;;;;5020103;28;20402;-60
2022/01/26 06:41:53;;;;;;;46.20;27.23;;;;;;;;;;5020890;28;20116;-60
2022/01/26 06:44:32;;;;;;;46.05;28.30;;;;;;;;;;5021774;28;20041;-60
2022/01/26 06:49:29;;;;;;;58.78;33.08;;;;;;;;;;5022007;28;20094;-60
2022/01/26 06:51:55;;;;;;;68.63;30.27;;;;;;;;;;5022188;28;20475;-60
2022/01/26 06:54:22;;;;;;;47.90;30.63;;;;;;;;;;5022805;28;20026;-60
2022/01/26 06:56:48;;;;;;;44.95;29.92;;;;;;;;;;5028300;28;20156;-60
2022/01/26 06:59:14;;;;;;;55.10;30.15;;;;;;;;;;5025736;28;20176;-60
2022/01/26 07:01:41;;;;;;;47.90;31.52;;;;;;;;;;5019525;28;20025;-60
2022/01/26 07:04:07;;;;;;;79.55;43.33;;;;;;;;;;5022562;28;20029;-60
2022/01/26 07:06:33;;;;;;;54.90;34.60;;;;;;;;;;5020503;28;20506;-59
2022/01/26 07:08:59;;;;;;;56.53;35.72;;;;;;;;;;5022364;28;20026;-61
2022/01/26 07:11:25;;;;;;;59.70;40.78;;;;;;;;;;5025436;28;20393;-60
2022/01/26 07:13:54;;;;;;;45.70;31.60;;;;;;;;;;5021886;28;20048;-60
2022/01/26 07:21:56;;;;;;;78.65;45.72;;;;;;;;;;5003926;28;20038;-60
2022/01/26 07:24:22;;;;;;;67.63;43.75;;;;;;;;;;4978485;28;20088;-60
2022/01/26 07:26:52;;;;;;;46.63;31.05;;;;;;;;;;4999466;28;20483;-61
2022/01/26 07:29:22;;;;;;;41.47;28.98;;;;;;;;;;5000508;28;20485;-60
2022/01/26 07:31:49;;;;;;;40.35;28.73;;;;;;;;;;4998259;28;20418;-60
2022/01/26 07:34:16;;;;;;;40.25;26.83;;;;;;;;;;4999382;28;20038;-60
2022/01/26 07:36:44;;;;;;;39.30;26.60;;;;;;;;;;5004616;28;20113;-61
2022/01/26 07:39:14;;;;;;;33.88;25.85;;;;;;;;;;5002572;28;20064;-61
2022/01/26 07:41:40;;;;;;;46.15;29.25;;;;;;;;;;5002460;28;20053;-60
2022/01/26 07:44:06;;;;;;;38.85;25.98;;;;;;;;;;4998976;28;20129;-60
2022/01/26 07:46:32;;;;;;;40.20;26.35;;;;;;;;;;5004437;28;20029;-61
2022/01/26 07:48:58;;;;;;;38.58;27.20;;;;;;;;;;5004705;28;20072;-61
2022/01/26 07:51:23;;;;;;;46.53;29.17;;;;;;;;;;5006554;28;20041;-61
2022/01/26 07:53:49;;;;;;;44.30;27.20;;;;;;;;;;5002285;28;20025;-60
2022/01/26 07:56:15;;;;;;;41.55;26.80;;;;;;;;;;5017190;28;20087;-60
2022/01/26 07:58:42;;;;;;;45.85;28.85;;;;;;;;;;5024079;28;20029;-61
2022/01/26 08:01:08;;;;;;;42.50;29.50;;;;;;;;;;5017958;28;20032;-60
2022/01/26 08:03:34;;;;;;;45.05;29.42;;;;;;;;;;5019903;28;20034;-60
2022/01/26 08:06:01;;;;;;;52.80;29.50;;;;;;;;;;5023332;28;20111;-60
2022/01/26 08:08:28;;;;;;;46.35;29.45;;;;;;;;;;5022670;28;20083;-60
2022/01/26 08:10:55;;;;;;;44.13;29.08;;;;;;;;;;5023894;28;20085;-61
2022/01/26 08:13:21;;;;;;;55.28;31.63;;;;;;;;;;5020250;28;20033;-60
2022/01/26 08:15:47;;;;;;;53.75;33.63;;;;;;;;;;5014204;28;20025;-60
2022/01/26 08:18:13;;;;;;;50.13;31.60;;;;;;;;;;5021443;28;20026;-60
2022/01/26 08:20:42;;;;;;;45.85;29.35;;;;;;;;;;5019481;28;20720;-60
2022/01/26 08:23:08;;;;;;;44.45;29.95;;;;;;;;;;5018486;28;20026;-60
2022/01/26 08:25:34;;;;;;;51.10;34.15;;;;;;;;;;5016839;28;20040;-60
2022/01/26 08:28:08;;;;;;;75.50;35.00;;;;;;;;;;5025401;28;20025;-61
2022/01/26 08:30:36;;;;;;;58.80;33.60;;;;;;;;;;5024376;28;20025;-61
2022/01/26 08:33:04;;;;;;;63.83;35.78;;;;;;;;;;5023925;28;20099;-61
2022/01/26 08:35:30;;;;;;;67.22;37.17;;;;;;;;;;5019946;28;20480;-60
2022/01/26 08:37:56;;;;;;;84.80;37.90;;;;;;;;;;5024295;28;20112;-60
2022/01/26 08:40:22;;;;;;;69.97;36.15;;;;;;;;;;5018442;28;20029;-60
2022/01/26 08:42:47;;;;;;;100.80;32.20;;;;;;;;;;5019938;28;20511;-60
2022/01/26 08:45:14;;;;;;;127.22;32.47;;;;;;;;;;5021055;28;20061;-60
2022/01/26 08:47:40;;;;;;;79.57;33.85;;;;;;;;;;5022960;28;20025;-60
2022/01/26 08:50:07;;;;;;;98.32;36.88;;;;;;;;;;5018877;28;20079;-60
2022/01/26 08:52:33;;;;;;;112.25;36.65;;;;;;;;;;5020638;28;20068;-60
2022/01/26 08:54:59;;;;;;;62.85;33.42;;;;;;;;;;5019554;28;20076;-60
2022/01/26 08:57:24;;;;;;;80.88;32.90;;;;;;;;;;5024381;28;20037;-60
2022/01/26 08:59:50;;;;;;;80.28;36.15;;;;;;;;;;5022100;28;20069;-60
2022/01/26 09:02:16;;;;;;;100.25;38.85;;;;;;;;;;5024412;28;20037;-60
2022/01/26 09:04:42;;;;;;;119.65;38.72;;;;;;;;;;5021920;28;20029;-61
2022/01/26 09:07:08;;;;;;;96.32;38.70;;;;;;;;;;5021475;28;20030;-61
2022/01/26 09:09:43;;;;;;;62.90;36.78;;;;;;;;;;5021959;28;20040;-60
2022/01/26 09:12:16;;;;;;;107.32;37.88;;;;;;;;;;5022230;28;20495;-60
2022/01/26 09:14:42;;;;;;;67.75;36.85;;;;;;;;;;5018970;28;20042;-60
2022/01/26 09:17:11;;;;;;;62.75;35.03;;;;;;;;;;5029173;28;20060;-60
2022/01/26 09:19:38;;;;;;;58.22;36.88;;;;;;;;;;5023903;28;20034;-60
2022/01/26 09:22:07;;;;;;;58.42;36.47;;;;;;;;;;5025073;28;20048;-60
2022/01/26 09:24:35;;;;;;;75.43;37.75;;;;;;;;;;5026797;28;20469;-61
2022/01/26 09:27:02;;;;;;;57.45;35.88;;;;;;;;;;5022695;28;20056;-61
2022/01/26 09:29:28;;;;;;;75.78;38.72;;;;;;;;;;5027949;28;20025;-60
2022/01/26 09:31:55;;;;;;;82.85;39.58;;;;;;;;;;5026780;28;20121;-60
2022/01/26 09:34:23;;;;;;;63.85;39.90;;;;;;;;;;5026352;28;20694;-61
2022/01/26 09:36:50;;;;;;;68.20;40.63;;;;;;;;;;5022553;28;20887;-61
2022/01/26 09:39:18;;;;;;;64.38;40.25;;;;;;;;;;5026046;28;20022;-60
2022/01/26 09:41:46;;;;;;;64.47;41.22;;;;;;;;;;5025891;28;20038;-60
2022/01/26 09:44:13;;;;;;;66.63;40.42;;;;;;;;;;5024138;28;20030;-61
2022/01/26 09:46:39;;;;;;;69.22;41.45;;;;;;;;;;5020153;28;20026;-60
2022/01/26 09:49:06;;;;;;;61.90;38.92;;;;;;;;;;5020821;28;20083;-61
2022/01/26 09:51:39;;;;;;;62.90;40.58;;;;;;;;;;5027232;28;20025;-60
2022/01/26 09:54:13;;;;;;;59.63;39.90;;;;;;;;;;5027119;28;20103;-60
2022/01/26 09:56:39;;;;;;;59.05;38.03;;;;;;;;;;5023658;28;20033;-60
2022/01/26 09:59:08;;;;;;;53.35;35.90;;;;;;;;;;5024679;28;20026;-60
2022/01/26 10:01:42;;;;;;;58.75;37.28;;;;;;;;;;5023567;28;20033;-60
2022/01/26 10:04:29;;;;;;;53.15;34.72;;;;;;;;;;5020657;28;20033;-60
2022/01/26 10:15:37;;;;;;;49.42;31.83;;;;;;;;;;5004370;28;20030;-60
2022/01/26 10:18:16;;;;;;;37.13;21.63;;;;;;;;;;5005292;28;20034;-60
2022/01/26 10:20:49;;;;;;;34.22;21.67;;;;;;;;;;5003529;28;20046;-60
2022/01/26 10:23:29;;;;;;;32.90;22.02;;;;;;;;;;4999005;28;20049;-60
2022/01/26 10:26:04;;;;;;;36.78;22.15;;;;;;;;;;5004635;28;20447;-60
2022/01/26 10:28:58;;;;;;;34.70;22.48;;;;;;;;;;5005596;28;20053;-61
2022/01/26 10:31:29;;;;;;;33.03;21.17;;;;;;;;;;4989522;28;20065;-60
2022/01/26 10:33:58;;;;;;;30.67;19.83;;;;;;;;;;5005122;28;20084;-60
2022/01/26 10:36:25;;;;;;;32.22;19.48;;;;;;;;;;5000760;28;20585;-61
2022/01/26 10:39:02;;;;;;;35.90;20.48;;;;;;;;;;5007555;28;20695;-61
2022/01/26 10:41:28;;;;;;;31.02;19.83;;;;;;;;;;5005397;28;20487;-61
2022/01/26 10:43:56;;;;;;;27.85;19.23;;;;;;;;;;5007114;28;20192;-60
2022/01/26 10:46:35;;;;;;;28.02;19.58;;;;;;;;;;5000297;28;20033;-60
2022/01/26 10:54:37;;;;;;;28.92;19.20;;;;;;;;;;5025884;28;20034;-61
2022/01/26 10:57:12;;;;;;;31.50;17.90;;;;;;;;;;5020893;28;20030;-60
2022/01/26 10:59:40;;;;;;;33.03;19.35;;;;;;;;;;5019755;28;20033;-61
2022/01/26 11:02:08;;;;;;;26.13;17.90;;;;;;;;;;5024149;28;20030;-61
2022/01/26 11:04:36;;;;;;;26.20;17.38;;;;;;;;;;5027837;28;20055;-60
2022/01/26 11:07:04;;;;;;;29.73;17.05;;;;;;;;;;5017735;28;20045;-60
2022/01/26 11:09:36;;;;;;;25.27;16.15;;;;;;;;;;5028082;28;20371;-60
2022/01/26 11:12:08;;;;;;;27.60;17.85;;;;;;;;;;5023624;28;20025;-60
2022/01/26 11:14:49;;;;;;;25.92;16.67;;;;;;;;;;5021993;28;20049;-61
2022/01/26 11:17:27;;;;;;;25.50;16.63;;;;;;;;;;5024603;28;20044;-60
2022/01/26 11:19:56;;;;;;;22.13;15.07;;;;;;;;;;5020687;28;20358;-59
2022/01/26 11:22:28;;;;;;;28.30;16.90;;;;;;;;;;5022641;28;20040;-60
2022/01/26 11:24:54;;;;;;;24.42;15.98;;;;;;;;;;5026124;28;20119;-61
2022/01/26 11:27:21;;;;;;;27.98;16.58;;;;;;;;;;5024651;28;20128;-60
2022/01/26 11:29:50;;;;;;;25.23;16.80;;;;;;;;;;5020308;28;20148;-60
2022/01/26 11:32:33;;;;;;;25.70;16.30;;;;;;;;;;5022357;28;20481;-60
2022/01/26 11:35:04;;;;;;;24.15;15.32;;;;;;;;;;5023958;28;20049;-60
2022/01/26 11:37:38;;;;;;;24.90;15.98;;;;;;;;;;5018003;28;20095;-60
2022/01/26 11:45:35;;;;;;;22.35;15.55;;;;;;;;;;5023702;28;20040;-60
2022/01/26 11:48:09;;;;;;;23.88;15.38;;;;;;;;;;5019071;28;20493;-60
2022/01/26 11:50:37;;;;;;;20.98;14.52;;;;;;;;;;5021226;28;20044;-60
2022/01/26 11:53:04;;;;;;;25.17;15.75;;;;;;;;;;5022167;28;20113;-60
2022/01/26 11:55:49;;;;;;;20.17;13.68;;;;;;;;;;5021651;28;20033;-60
2022/01/26 11:58:28;;;;;;;27.60;14.18;;;;;;;;;;5016413;28;20057;-60
2022/01/26 12:03:35;;;;;;;23.75;13.65;;;;;;;;;;5021395;28;20037;-60
2022/01/26 12:06:01;;;;;;;18.85;12.55;;;;;;;;;;5025481;28;20041;-60
2022/01/26 12:08:29;;;;;;;21.13;13.57;;;;;;;;;;5018759;28;20116;-60
2022/01/26 12:10:55;;;;;;;21.50;13.32;;;;;;;;;;5022786;28;20044;-60
2022/01/26 12:13:28;;;;;;;20.13;13.32;;;;;;;;;;5018409;28;20029;-60
2022/01/26 12:15:58;;;;;;;22.45;14.27;;;;;;;;;;5018528;28;20037;-60
2022/01/26 12:35:36;;;;;;;22.83;14.73;;;;;;;;;;5021323;28;20045;-62
2022/01/26 12:38:12;;;;;;;24.30;15.82;;;;;;;;;;5020792;28;20359;-61
2022/01/26 12:43:38;;;;;;;23.80;14.80;;;;;;;;;;5016292;28;20025;-60
2022/01/26 12:46:28;;;;;;;21.42;14.45;;;;;;;;;;5025777;28;20048;-60
2022/01/26 12:48:59;;;;;;;22.35;14.30;;;;;;;;;;5019845;28;20048;-60
2022/01/26 12:51:29;;;;;;;20.90;14.57;;;;;;;;;;5017161;28;20022;-61
2022/01/26 12:53:59;;;;;;;23.35;15.18;;;;;;;;;;5022156;28;20091;-60
2022/01/26 12:56:29;;;;;;;26.63;14.93;;;;;;;;;;5022792;28;20034;-60
2022/01/26 12:59:08;;;;;;;21.67;14.10;;;;;;;;;;5019947;28;20470;-60
2022/01/26 13:01:35;;;;;;;22.30;14.07;;;;;;;;;;5014834;28;20734;-60
2022/01/26 13:04:04;;;;;;;25.10;14.05;;;;;;;;;;5016235;28;20052;-60
2022/01/26 13:06:35;;;;;;;23.92;14.07;;;;;;;;;;5017051;28;20038;-60
2022/01/26 13:09:15;;;;;;;25.38;15.27;;;;;;;;;;5023965;28;20033;-60
2022/01/26 13:11:40;;;;;;;21.45;13.93;;;;;;;;;;5023112;28;20735;-60
2022/01/26 13:14:36;;;;;;;22.92;14.07;;;;;;;;;;5019593;28;20034;-61
2022/01/26 13:27:52;;;;;;;24.20;13.52;;;;;;;;;;5021284;28;20036;-60
2022/01/26 13:35:46;;;;;;;26.02;15.30;;;;;;;;;;5019792;28;20048;-61
2022/01/26 13:41:01;;;;;;;19.55;13.15;;;;;;;;;;5020374;28;20037;-61
2022/01/26 13:46:41;;;;;;;24.15;15.55;;;;;;;;;;5018499;28;20034;-60
2022/01/26 13:57:13;;;;;;;21.23;12.82;;;;;;;;;;5021331;28;20037;-60
2022/01/26 13:59:45;;;;;;;18.98;12.27;;;;;;;;;;5014723;28;20032;-61
2022/01/26 14:02:12;;;;;;;17.40;11.63;;;;;;;;;;5026716;28;20033;-60
2022/01/26 14:04:39;;;;;;;19.20;12.52;;;;;;;;;;5021848;28;20120;-60
2022/01/26 14:07:05;;;;;;;20.98;12.15;;;;;;;;;;5026605;28;20033;-61
2022/01/26 14:09:31;;;;;;;20.40;12.57;;;;;;;;;;5026837;28;20084;-61
2022/01/26 14:11:59;;;;;;;24.95;12.55;;;;;;;;;;5021252;28;20062;-60
2022/01/26 14:14:32;;;;;;;20.65;12.38;;;;;;;;;;5022159;28;20091;-60
2022/01/26 14:17:01;;;;;;;25.52;13.23;;;;;;;;;;5022325;28;20085;-60
2022/01/26 14:25:13;;;;;;;16.35;11.23;;;;;;;;;;5015902;28;20037;-60
2022/01/26 14:27:46;;;;;;;18.13;10.70;;;;;;;;;;5019634;28;20026;-60
2022/01/26 14:40:32;;;;;;;19.88;12.60;;;;;;;;;;5020979;28;20394;-61
2022/01/26 14:51:16;;;;;;;18.85;12.63;;;;;;;;;;5024073;28;20032;-60
2022/01/26 15:21:51;;;;;;;26.48;16.42;;;;;;;;;;4958691;28;20644;-60
2022/01/26 15:33:48;;;;;;;31.42;15.85;;;;;;;;;;4965771;28;20039;-60
2022/01/26 15:42:19;;;;;;;35.60;21.08;;;;;;;;;;4961776;28;20074;-60
2022/01/26 15:44:50;;;;;;;38.72;23.10;;;;;;;;;;4962372;28;20058;-60
2022/01/26 15:50:14;;;;;;;35.35;21.40;;;;;;;;;;4965030;28;20565;-60
2022/01/26 15:57:59;;;;;;;33.92;21.17;;;;;;;;;;5010950;28;20036;-60
2022/01/26 16:08:32;;;;;;;50.17;29.35;;;;;;;;;;5021897;28;20374;-60
2022/01/26 16:17:29;;;;;;;53.83;37.30;;;;;;;;;;5016096;28;20064;-61
2022/01/26 16:38:01;;;;;;;34.50;24.90;;;;;;;;;;5025189;28;20051;-60
2022/01/26 17:02:53;;;;;;;19.75;11.88;;;;;;;;;;5020470;28;20056;-59
2022/01/26 17:11:21;;;;;;;16.70;10.57;;;;;;;;;;5019078;28;20029;-60
2022/01/26 17:24:48;;;;;;;32.80;22.42;;;;;;;;;;5018052;28;20026;-59
2022/01/26 17:43:49;;;;;;;36.78;19.50;;;;;;;;;;5025444;28;20038;-59
2022/01/26 18:16:24;;;;;;;68.13;32.83;;;;;;;;;;5022090;28;20083;-60
2022/01/26 18:32:44;;;;;;;26.88;15.75;;;;;;;;;;5024933;28;20036;-59
2022/01/26 18:51:36;;;;;;;48.80;31.70;;;;;;;;;;5017808;28;20492;-60
2022/01/26 18:54:03;;;;;;;68.32;46.28;;;;;;;;;;5022548;28;20116;-60
2022/01/26 18:56:30;;;;;;;50.90;34.80;;;;;;;;;;5024808;28;20120;-60
2022/01/26 18:58:55;;;;;;;44.30;30.20;;;;;;;;;;5017244;28;20044;-59
2022/01/26 19:01:22;;;;;;;40.72;26.20;;;;;;;;;;5021123;28;20037;-60
2022/01/26 19:03:48;;;;;;;31.90;23.00;;;;;;;;;;5023622;28;20393;-59
2022/01/26 19:06:14;;;;;;;42.45;24.25;;;;;;;;;;5020327;28;20049;-60
2022/01/26 19:08:41;;;;;;;33.33;25.73;;;;;;;;;;5022160;28;20079;-60
2022/01/26 19:11:10;;;;;;;36.40;26.27;;;;;;;;;;5025193;28;20036;-60
2022/01/26 19:13:37;;;;;;;38.10;25.15;;;;;;;;;;5024798;28;20025;-60
2022/01/26 19:16:10;;;;;;;33.83;22.80;;;;;;;;;;5023186;28;20029;-60
2022/01/26 19:18:55;;;;;;;31.10;18.30;;;;;;;;;;5025552;28;20033;-60
2022/01/26 19:26:39;;;;;;;37.60;22.48;;;;;;;;;;5019560;28;20215;-60
2022/01/26 19:29:21;;;;;;;38.43;23.70;;;;;;;;;;5019535;28;20036;-60
2022/01/26 19:50:48;;;;;;;25.27;15.77;;;;;;;;;;5006177;28;20059;-59
2022/01/26 19:53:14;;;;;;;31.00;16.67;;;;;;;;;;4998745;28;20034;-59
2022/01/26 19:55:40;;;;;;;28.13;17.15;;;;;;;;;;5001640;28;20038;-60
2022/01/26 19:58:08;;;;;;;27.50;16.17;;;;;;;;;;5002997;28;20057;-59
2022/01/26 20:00:42;;;;;;;33.95;19.77;;;;;;;;;;4986882;28;20436;-59
2022/01/26 20:03:08;;;;;;;31.83;16.92;;;;;;;;;;5000502;28;20033;-60
2022/01/26 20:05:34;;;;;;;29.58;14.27;;;;;;;;;;4996653;28;20105;-59
2022/01/26 20:08:08;;;;;;;19.13;13.70;;;;;;;;;;4999091;28;20041;-60
2022/01/26 20:10:39;;;;;;;20.25;14.27;;;;;;;;;;5003213;28;20048;-60
2022/01/26 20:13:14;;;;;;;24.30;14.85;;;;;;;;;;5002725;28;20045;-60
2022/01/26 20:15:39;;;;;;;27.40;15.43;;;;;;;;;;5003632;28;20531;-61
2022/01/26 20:18:05;;;;;;;26.50;15.27;;;;;;;;;;5002062;28;20042;-60
2022/01/26 20:20:31;;;;;;;31.30;17.13;;;;;;;;;;5015403;28;20046;-60
2022/01/26 20:22:56;;;;;;;25.60;15.85;;;;;;;;;;5024708;28;20044;-61
2022/01/26 20:25:23;;;;;;;25.92;15.48;;;;;;;;;;5017881;28;20045;-61
2022/01/26 20:27:49;;;;;;;24.00;15.07;;;;;;;;;;5017490;28;20033;-60
2022/01/26 20:30:21;;;;;;;25.70;16.50;;;;;;;;;;5021276;28;20434;-60
2022/01/26 20:32:49;;;;;;;28.95;17.80;;;;;;;;;;5023760;28;20109;-60
2022/01/26 20:35:17;;;;;;;29.90;17.55;;;;;;;;;;5023260;28;20047;-59
2022/01/26 20:37:43;;;;;;;33.35;18.98;;;;;;;;;;5023038;28;20061;-60
2022/01/26 20:40:10;;;;;;;35.17;23.52;;;;;;;;;;5025323;28;20037;-61
2022/01/26 20:42:37;;;;;;;38.10;22.75;;;;;;;;;;5025061;28;20029;-60
2022/01/26 20:45:06;;;;;;;36.58;21.77;;;;;;;;;;5019962;28;20061;-60
2022/01/26 20:47:34;;;;;;;32.15;20.08;;;;;;;;;;5023993;28;20068;-60
2022/01/26 20:50:00;;;;;;;27.77;19.52;;;;;;;;;;5013887;28;20025;-60
2022/01/26 20:52:26;;;;;;;35.38;19.92;;;;;;;;;;5021089;28;20029;-61
2022/01/26 20:54:52;;;;;;;29.92;18.67;;;;;;;;;;5020842;28;20087;-60
2022/01/26 20:57:18;;;;;;;35.33;20.15;;;;;;;;;;5018948;28;20029;-60
2022/01/26 20:59:44;;;;;;;36.22;19.55;;;;;;;;;;5018629;28;20060;-61
2022/01/26 21:02:10;;;;;;;34.75;20.70;;;;;;;;;;5020408;28;20025;-61
2022/01/26 21:04:36;;;;;;;34.25;22.58;;;;;;;;;;5021717;28;20048;-60
2022/01/26 21:07:02;;;;;;;39.78;22.27;;;;;;;;;;5021033;28;20034;-60
2022/01/26 21:09:27;;;;;;;33.60;20.80;;;;;;;;;;5020529;28;20064;-60